Time;durP1;ratioP1;P1;durP2;ratioP2;P2;SDS_P1;SDS_P2;PMS_P1;PMS_P2;Temp;Humidity;BMP_temperature;BMP_pressure;BME280_temperature;BME280_humidity;BME280_pressure;Samples;Min_cycle;Max_cycle;Signal;HPM_P1;HPM_P2
2022/07/19 00:02:11;;;;;;;2.58;0.70;;;;;;;31.08;23.04;98807.56;4992919;28;20113;-78
2022/07/19 00:04:37;;;;;;;1.17;0.50;;;;;;;31.33;22.52;98798.84;4994699;28;20018;-79
2022/07/19 00:07:03;;;;;;;3.45;1.10;;;;;;;31.56;22.23;98801.19;4989461;28;20505;-78
2022/07/19 00:09:29;;;;;;;1.30;0.80;;;;;;;31.42;22.47;98807.41;4988036;28;20387;-78
2022/07/19 00:11:56;;;;;;;2.28;1.00;;;;;;;31.17;22.73;98799.91;4986827;28;20070;-78
2022/07/19 00:14:22;;;;;;;0.80;0.68;;;;;;;30.90;22.87;98801.81;4995415;28;20081;-78
2022/07/19 00:16:48;;;;;;;1.27;0.60;;;;;;;30.99;23.26;98801.84;4991891;28;20031;-78
2022/07/19 00:19:15;;;;;;;0.70;0.50;;;;;;;31.25;22.85;98794.75;4988983;28;20026;-78
2022/07/19 00:21:41;;;;;;;1.13;0.50;;;;;;;31.44;22.46;98790.72;4984954;28;20028;-78
2022/07/19 00:24:07;;;;;;;0.80;0.52;;;;;;;31.61;22.08;98789.22;4991748;28;20034;-79
2022/07/19 00:26:33;;;;;;;0.80;0.60;;;;;;;31.81;21.71;98785.97;4989328;28;20027;-78
2022/07/19 00:29:00;;;;;;;0.88;0.60;;;;;;;31.82;21.96;98773.31;4988055;28;20042;-78
2022/07/19 00:31:27;;;;;;;0.90;0.70;;;;;;;31.40;22.41;98775.88;4984020;28;20373;-78
2022/07/19 00:33:53;;;;;;;1.20;0.70;;;;;;;31.30;22.73;98785.59;4983063;28;20054;-78
2022/07/19 00:36:20;;;;;;;0.68;0.50;;;;;;;31.26;22.51;98779.28;5002556;28;20479;-78
2022/07/19 00:38:46;;;;;;;0.93;0.55;;;;;;;31.36;22.66;98783.75;4983485;28;20054;-78
2022/07/19 00:41:13;;;;;;;2.30;0.70;;;;;;;31.40;22.26;98790.06;4999443;28;20441;-78
2022/07/19 00:43:43;;;;;;;1.15;0.68;;;;;;;31.34;22.54;98781.34;4985525;28;20065;-78
2022/07/19 00:46:18;;;;;;;1.95;1.08;;;;;;;31.39;21.84;98788.50;4984223;28;20137;-78
2022/07/19 00:48:44;;;;;;;0.93;0.57;;;;;;;31.62;21.91;98787.97;4990959;28;20037;-78
2022/07/19 00:51:12;;;;;;;2.95;0.73;;;;;;;31.57;22.39;98784.94;4986450;28;20037;-78
2022/07/19 00:53:39;;;;;;;0.60;0.55;;;;;;;31.47;22.12;98784.13;4988334;28;20033;-79
2022/07/19 00:56:07;;;;;;;1.15;0.50;;;;;;;31.58;22.28;98781.63;4992571;28;20031;-77
2022/07/19 00:58:35;;;;;;;1.45;0.60;;;;;;;31.80;22.12;98790.03;4991045;28;20050;-78
2022/07/19 01:01:03;;;;;;;0.68;0.55;;;;;;;31.93;21.78;98794.31;4985560;28;20042;-78
2022/07/19 01:03:29;;;;;;;1.83;0.70;;;;;;;31.97;21.50;98789.31;4988834;28;20437;-78
2022/07/19 01:05:56;;;;;;;1.45;0.85;;;;;;;31.93;21.51;98785.00;4991411;28;20026;-78
2022/07/19 01:08:22;;;;;;;0.65;0.60;;;;;;;31.44;21.99;98790.72;4991880;28;20038;-78
2022/07/19 01:10:48;;;;;;;0.80;0.60;;;;;;;31.11;22.58;98796.06;4985716;28;20121;-78
2022/07/19 01:13:15;;;;;;;1.02;0.68;;;;;;;31.10;22.43;98780.31;4999853;28;20387;-78
2022/07/19 01:15:42;;;;;;;5.25;1.45;;;;;;;31.19;22.33;98783.19;4992998;28;20030;-78
2022/07/19 01:18:09;;;;;;;1.08;0.50;;;;;;;31.09;22.57;98790.06;4987620;28;20040;-78
2022/07/19 01:20:36;;;;;;;1.88;0.50;;;;;;;30.93;22.74;98789.50;4991781;28;20042;-78
2022/07/19 01:23:02;;;;;;;1.60;0.70;;;;;;;30.90;22.89;98785.56;4986658;28;20034;-77
2022/07/19 01:25:34;;;;;;;0.73;0.52;;;;;;;30.68;22.92;98779.91;4983343;28;20044;-78
2022/07/19 01:28:02;;;;;;;0.95;0.50;;;;;;;30.67;23.30;98788.84;4991504;28;20045;-78
2022/07/19 01:30:28;;;;;;;0.93;0.70;;;;;;;30.70;23.08;98790.75;4986354;28;20044;-78
2022/07/19 01:32:56;;;;;;;2.13;0.50;;;;;;;30.94;22.94;98796.78;4986505;28;20034;-77
2022/07/19 01:35:22;;;;;;;0.82;0.60;;;;;;;31.22;22.46;98785.13;4992676;28;20046;-77
2022/07/19 01:37:49;;;;;;;0.55;0.40;;;;;;;31.49;22.15;98783.63;4986654;28;20121;-77
2022/07/19 01:40:17;;;;;;;1.20;0.80;;;;;;;31.14;22.31;98780.97;4986362;28;20041;-77
2022/07/19 01:42:44;;;;;;;0.60;0.50;;;;;;;30.52;23.32;98785.78;4990640;28;20548;-78
2022/07/19 01:45:12;;;;;;;2.28;0.75;;;;;;;30.08;23.37;98789.78;4984474;28;20031;-77
2022/07/19 01:47:40;;;;;;;1.30;0.60;;;;;;;29.96;23.83;98787.78;4987304;28;20038;-78
2022/07/19 01:50:08;;;;;;;1.35;0.60;;;;;;;30.34;23.47;98784.84;4986625;28;20122;-78
2022/07/19 01:52:35;;;;;;;2.75;0.77;;;;;;;30.69;23.36;98784.31;4988467;28;20109;-77
2022/07/19 01:55:01;;;;;;;2.15;0.80;;;;;;;30.91;22.64;98786.34;4987958;28;20553;-77
2022/07/19 01:57:28;;;;;;;1.27;0.60;;;;;;;31.04;22.71;98784.22;4988697;28;20047;-77
2022/07/19 01:59:54;;;;;;;1.15;0.60;;;;;;;31.32;22.47;98783.09;4987148;28;20042;-77
2022/07/19 02:02:21;;;;;;;0.50;0.40;;;;;;;31.42;22.13;98776.19;4988174;28;20022;-78
2022/07/19 02:04:47;;;;;;;1.58;0.55;;;;;;;31.31;22.53;98779.47;4981476;28;20048;-77
2022/07/19 02:07:13;;;;;;;1.55;1.05;;;;;;;31.54;22.15;98780.19;4983997;28;20031;-78
2022/07/19 02:09:39;;;;;;;0.82;0.57;;;;;;;31.74;22.11;98780.59;4997847;28;20039;-78
2022/07/19 02:12:05;;;;;;;0.82;0.50;;;;;;;31.91;21.66;98785.50;4986194;28;20027;-78
2022/07/19 02:14:32;;;;;;;0.40;0.40;;;;;;;31.76;22.24;98775.22;4993532;28;20430;-77
2022/07/19 02:16:58;;;;;;;1.25;0.60;;;;;;;31.68;22.24;98777.56;4982684;28;20026;-78
2022/07/19 02:19:24;;;;;;;0.70;0.50;;;;;;;31.71;22.24;98779.47;4988570;28;20042;-78
2022/07/19 02:21:50;;;;;;;1.23;0.50;;;;;;;31.52;22.43;98777.84;4986248;28;20085;-78
2022/07/19 02:24:16;;;;;;;0.82;0.40;;;;;;;31.65;22.51;98784.16;4982587;28;20113;-77
2022/07/19 02:26:42;;;;;;;1.23;0.57;;;;;;;31.73;22.44;98781.81;4991491;28;20041;-78
2022/07/19 02:29:09;;;;;;;1.70;0.93;;;;;;;31.67;22.23;98786.56;4989509;28;20046;-77
2022/07/19 02:31:35;;;;;;;0.75;0.50;;;;;;;31.62;22.57;98790.00;4992029;28;20125;-78
2022/07/19 02:34:01;;;;;;;1.95;0.70;;;;;;;31.82;22.33;98791.16;4988118;28;20030;-78
2022/07/19 02:36:27;;;;;;;0.32;0.30;;;;;;;32.02;21.89;98783.00;4992776;28;20073;-77
2022/07/19 02:38:54;;;;;;;0.63;0.50;;;;;;;32.21;21.58;98791.56;4982081;28;20042;-78
2022/07/19 02:41:20;;;;;;;0.40;0.32;;;;;;;32.32;21.25;98781.31;4992902;28;20376;-78
2022/07/19 02:43:46;;;;;;;1.00;0.47;;;;;;;32.43;21.55;98787.28;4987122;28;20042;-78
2022/07/19 02:46:12;;;;;;;1.13;0.55;;;;;;;32.49;21.66;98781.75;4989382;28;20041;-78
2022/07/19 02:48:38;;;;;;;1.33;0.85;;;;;;;32.51;21.16;98791.41;4986881;28;20034;-77
2022/07/19 02:51:08;;;;;;;1.10;0.50;;;;;;;32.46;21.42;98788.41;4985022;28;20034;-78
2022/07/19 02:53:34;;;;;;;0.60;0.50;;;;;;;32.54;21.41;98798.19;4989537;28;20026;-78
2022/07/19 02:56:00;;;;;;;0.88;0.57;;;;;;;32.55;21.82;98791.25;4990003;28;20046;-78
2022/07/19 02:58:27;;;;;;;2.03;0.50;;;;;;;32.22;21.83;98795.97;4991620;28;20418;-78
2022/07/19 03:00:53;;;;;;;1.45;0.55;;;;;;;31.82;22.68;98796.03;5000022;28;20027;-77
2022/07/19 03:06:03;;;;;;;0.38;0.30;;;;;;;31.55;22.80;98793.16;4983685;28;20038;-77
2022/07/19 03:08:29;;;;;;;0.80;0.52;;;;;;;31.72;22.71;98800.91;5006238;28;20042;-78
2022/07/19 03:10:55;;;;;;;0.50;0.40;;;;;;;32.00;21.89;98796.91;4988232;28;20035;-78
2022/07/19 03:13:22;;;;;;;1.02;0.70;;;;;;;32.20;22.10;98799.28;4989362;28;20595;-77
2022/07/19 03:15:48;;;;;;;0.82;0.40;;;;;;;32.21;21.90;98800.09;4992229;28;20038;-78
2022/07/19 03:18:14;;;;;;;0.68;0.57;;;;;;;32.05;21.93;98799.13;4993201;28;20030;-78
2022/07/19 03:20:40;;;;;;;0.95;0.55;;;;;;;31.82;22.58;98793.19;4989320;28;20039;-77
2022/07/19 03:23:07;;;;;;;0.60;0.50;;;;;;;31.98;22.35;98798.63;4992482;28;20066;-78
2022/07/19 03:25:33;;;;;;;0.98;0.60;;;;;;;32.17;21.84;98802.28;4990281;28;20090;-77
2022/07/19 03:27:59;;;;;;;0.98;0.50;;;;;;;32.41;21.93;98806.88;4991345;28;20070;-77
2022/07/19 03:30:26;;;;;;;0.50;0.50;;;;;;;32.29;21.93;98804.97;4992283;28;20025;-78
2022/07/19 03:32:52;;;;;;;0.40;0.40;;;;;;;32.02;22.34;98802.91;4989726;28;20039;-78
2022/07/19 03:35:19;;;;;;;1.67;0.55;;;;;;;32.25;21.92;98800.72;4994796;28;20037;-78
2022/07/19 03:37:46;;;;;;;1.38;0.57;;;;;;;32.59;21.59;98801.22;4992908;28;20081;-78
2022/07/19 03:40:13;;;;;;;0.50;0.50;;;;;;;32.72;21.62;98801.81;4993449;28;20565;-78
2022/07/19 03:42:39;;;;;;;0.90;0.60;;;;;;;32.61;21.80;98804.34;4992914;28;20038;-78
2022/07/19 03:45:05;;;;;;;0.70;0.50;;;;;;;32.51;21.68;98805.63;4988926;28;20037;-78
2022/07/19 03:47:31;;;;;;;0.82;0.50;;;;;;;32.75;21.47;98806.56;4990661;28;20475;-78
2022/07/19 03:49:58;;;;;;;1.17;0.40;;;;;;;33.17;21.79;98805.84;4986667;28;20041;-78
2022/07/19 03:52:25;;;;;;;1.02;0.52;;;;;;;33.65;21.63;98807.59;4995180;28;20048;-78
2022/07/19 03:54:51;;;;;;;0.50;0.47;;;;;;;33.78;21.75;98813.03;4988607;28;20431;-78
2022/07/19 03:57:18;;;;;;;0.93;0.68;;;;;;;33.71;21.50;98814.19;4992115;28;20136;-79
2022/07/19 03:59:45;;;;;;;0.82;0.47;;;;;;;33.51;21.98;98810.31;4986965;28;20042;-78
2022/07/19 04:02:11;;;;;;;0.93;0.60;;;;;;;33.25;22.30;98809.94;4991912;28;20066;-78
2022/07/19 04:04:37;;;;;;;0.93;0.63;;;;;;;32.92;22.72;98814.75;4993203;28;20030;-78
2022/07/19 04:07:03;;;;;;;0.98;0.52;;;;;;;32.70;23.23;98817.78;4989465;28;20038;-78
2022/07/19 04:09:30;;;;;;;1.50;0.50;;;;;;;32.57;23.55;98814.31;4984230;28;20033;-78
2022/07/19 04:11:56;;;;;;;0.60;0.60;;;;;;;32.50;24.07;98811.78;4990007;28;20401;-78
2022/07/19 04:14:22;;;;;;;0.88;0.60;;;;;;;32.44;23.89;98816.53;4993556;28;20038;-78
2022/07/19 04:16:48;;;;;;;2.00;0.40;;;;;;;32.35;24.33;98820.13;4986075;28;20051;-78
2022/07/19 04:19:14;;;;;;;0.50;0.40;;;;;;;32.34;24.13;98818.56;4993997;28;20042;-78
2022/07/19 04:21:40;;;;;;;0.93;0.70;;;;;;;32.50;23.93;98821.13;4987560;28;20034;-78
2022/07/19 04:24:06;;;;;;;0.90;0.50;;;;;;;32.58;24.09;98815.91;4985391;28;20477;-78
2022/07/19 04:26:32;;;;;;;0.43;0.43;;;;;;;32.59;24.19;98821.13;4985943;28;20418;-78
2022/07/19 04:28:58;;;;;;;0.82;0.40;;;;;;;32.64;24.25;98825.38;4988339;28;20173;-78
2022/07/19 04:31:24;;;;;;;0.85;0.63;;;;;;;33.06;24.26;98826.28;4989774;28;20038;-78
2022/07/19 04:33:50;;;;;;;0.60;0.55;;;;;;;33.34;24.30;98822.09;4984815;28;20403;-78
2022/07/19 04:36:16;;;;;;;0.60;0.60;;;;;;;33.29;24.34;98825.59;4985205;28;20041;-78
2022/07/19 04:38:42;;;;;;;0.73;0.50;;;;;;;33.08;24.07;98825.78;4983189;28;20085;-78
2022/07/19 04:41:09;;;;;;;1.25;0.50;;;;;;;33.07;24.75;98830.69;4990004;28;20038;-78
2022/07/19 04:43:35;;;;;;;0.47;0.40;;;;;;;33.24;24.97;98828.28;4985220;28;20073;-78
2022/07/19 04:46:01;;;;;;;0.85;0.57;;;;;;;33.32;24.99;98823.84;4998809;28;20042;-78
2022/07/19 04:48:27;;;;;;;5.40;0.70;;;;;;;33.28;24.00;98832.53;4989654;28;20077;-78
2022/07/19 04:50:54;;;;;;;1.25;0.90;;;;;;;33.32;24.39;98830.31;4993179;28;20035;-78
2022/07/19 04:53:20;;;;;;;1.83;0.75;;;;;;;33.42;24.75;98828.22;4993371;28;20033;-78
2022/07/19 04:55:46;;;;;;;0.73;0.73;;;;;;;33.64;24.36;98825.94;4986857;28;20065;-78
2022/07/19 04:58:12;;;;;;;0.88;0.73;;;;;;;33.65;23.74;98829.59;4985486;28;20049;-79
2022/07/19 05:00:38;;;;;;;0.60;0.50;;;;;;;33.85;23.05;98827.72;4986499;28;20393;-79
2022/07/19 05:03:05;;;;;;;0.90;0.73;;;;;;;34.22;22.98;98824.66;4989011;28;20117;-79
2022/07/19 05:05:32;;;;;;;1.58;0.70;;;;;;;34.68;22.92;98838.09;4985778;28;20027;-79
2022/07/19 05:07:58;;;;;;;3.33;0.65;;;;;;;34.86;23.07;98842.06;4997843;28;20490;-79
2022/07/19 05:10:24;;;;;;;1.30;0.95;;;;;;;35.08;22.32;98834.72;4992043;28;20039;-78
2022/07/19 05:12:50;;;;;;;0.77;0.50;;;;;;;35.03;22.49;98834.63;4990985;28;20545;-78
2022/07/19 05:15:16;;;;;;;1.48;0.88;;;;;;;35.00;22.52;98835.56;4982740;28;20055;-79
2022/07/19 05:17:42;;;;;;;0.63;0.50;;;;;;;35.22;22.57;98836.78;4983445;28;20046;-79
2022/07/19 05:20:10;;;;;;;0.75;0.63;;;;;;;35.83;22.21;98828.41;4988139;28;20058;-79
2022/07/19 05:22:36;;;;;;;1.60;0.80;;;;;;;36.55;20.53;98824.50;4984586;28;20027;-79
2022/07/19 05:25:02;;;;;;;1.17;0.65;;;;;;;36.98;19.87;98824.72;4985809;28;20034;-78
2022/07/19 05:27:29;;;;;;;0.77;0.45;;;;;;;37.21;19.17;98830.16;4988067;28;20030;-79
2022/07/19 05:29:55;;;;;;;0.88;0.68;;;;;;;37.20;18.82;98824.94;4988848;28;20030;-79
2022/07/19 05:32:22;;;;;;;0.75;0.60;;;;;;;37.17;19.29;98832.47;4990680;28;20062;-78
2022/07/19 05:34:48;;;;;;;0.98;0.50;;;;;;;37.21;19.40;98824.44;5000487;28;20026;-79
2022/07/19 05:37:14;;;;;;;0.50;0.50;;;;;;;37.30;19.27;98824.25;4992259;28;20038;-79
2022/07/19 05:39:40;;;;;;;0.95;0.45;;;;;;;37.30;19.53;98823.47;4992602;28;20050;-78
2022/07/19 05:42:06;;;;;;;0.60;0.60;;;;;;;37.31;19.88;98820.09;4993034;28;20035;-80
2022/07/19 05:44:32;;;;;;;1.73;0.70;;;;;;;37.49;19.57;98818.16;4991997;28;20109;-79
2022/07/19 05:46:59;;;;;;;0.90;0.50;;;;;;;37.36;18.31;98822.22;4992294;28;20478;-78
2022/07/19 05:49:25;;;;;;;0.70;0.40;;;;;;;37.13;18.55;98823.31;4992442;28;20088;-79
2022/07/19 05:51:51;;;;;;;0.85;0.50;;;;;;;37.10;19.63;98821.47;4992884;28;20038;-79
2022/07/19 05:54:17;;;;;;;0.55;0.52;;;;;;;37.34;19.25;98827.66;4983194;28;20034;-80
2022/07/19 05:56:44;;;;;;;0.95;0.40;;;;;;;37.48;19.20;98826.00;4988304;28;20514;-80
2022/07/19 05:59:10;;;;;;;0.70;0.50;;;;;;;37.78;19.32;98817.88;4988043;28;20562;-80
2022/07/19 06:01:36;;;;;;;1.17;0.70;;;;;;;37.96;19.07;98814.63;4992278;28;20064;-79
2022/07/19 06:04:02;;;;;;;0.50;0.40;;;;;;;38.14;18.77;98813.41;4992522;28;20073;-79
2022/07/19 06:06:33;;;;;;;0.50;0.47;;;;;;;38.23;18.94;98819.69;4991548;28;20085;-79
2022/07/19 06:08:59;;;;;;;;;;;;;;;38.34;19.08;98825.53;4991684;28;20037;-79
2022/07/19 06:11:26;;;;;;;0.80;0.55;;;;;;;38.60;19.00;98808.91;4978838;28;20397;-79
2022/07/19 06:13:53;;;;;;;1.00;0.52;;;;;;;38.74;18.67;98817.88;4991033;28;20038;-79
2022/07/19 06:16:19;;;;;;;1.40;0.60;;;;;;;38.81;19.20;98817.34;4992888;28;20538;-80
2022/07/19 06:18:45;;;;;;;2.25;0.73;;;;;;;38.98;18.31;98821.81;4993732;28;20037;-79
2022/07/19 06:21:14;;;;;;;1.73;0.50;;;;;;;39.18;18.21;98827.38;4993520;28;20387;-79
2022/07/19 06:23:41;;;;;;;0.77;0.45;;;;;;;39.33;17.57;98819.25;4992394;28;20448;-79
2022/07/19 06:26:08;;;;;;;0.77;0.50;;;;;;;39.37;17.33;98821.91;4993603;28;20030;-79
2022/07/19 06:28:34;;;;;;;0.90;0.55;;;;;;;39.39;17.65;98813.53;4987097;28;20031;-79
2022/07/19 06:31:01;;;;;;;1.33;0.82;;;;;;;39.43;17.54;98813.25;4974262;28;20491;-79
2022/07/19 06:33:27;;;;;;;1.17;0.98;;;;;;;39.58;17.10;98816.66;4976210;28;20377;-79
2022/07/19 06:35:53;;;;;;;2.80;0.68;;;;;;;39.63;16.92;98813.78;4992547;28;20034;-79
2022/07/19 06:38:19;;;;;;;0.80;0.77;;;;;;;39.65;16.71;98816.94;4981204;28;20474;-80
2022/07/19 06:40:46;;;;;;;0.50;0.50;;;;;;;39.69;16.71;98814.56;4993148;28;20038;-80
2022/07/19 06:43:12;;;;;;;0.40;0.35;;;;;;;39.81;16.44;98821.88;4992754;28;20034;-81
2022/07/19 06:45:39;;;;;;;0.75;0.60;;;;;;;39.83;16.59;98816.38;4993615;28;20105;-80
2022/07/19 06:48:05;;;;;;;0.80;0.50;;;;;;;39.81;16.18;98816.13;4993583;28;20034;-80
2022/07/19 06:50:32;;;;;;;0.40;0.30;;;;;;;39.81;16.41;98818.22;4988791;28;20042;-80
2022/07/19 06:52:58;;;;;;;1.80;0.57;;;;;;;39.80;16.86;98817.41;5002369;28;20035;-80
2022/07/19 06:55:24;;;;;;;0.52;0.52;;;;;;;39.78;17.36;98819.25;4992517;28;20121;-80
2022/07/19 06:57:50;;;;;;;0.60;0.40;;;;;;;39.94;17.04;98816.34;4993993;28;20047;-80
2022/07/19 07:00:17;;;;;;;1.13;0.50;;;;;;;40.03;15.71;98818.97;4996321;28;20403;-80
2022/07/19 07:02:44;;;;;;;0.50;0.50;;;;;;;40.07;16.14;98823.66;4994011;28;20403;-80
2022/07/19 07:05:11;;;;;;;0.52;0.50;;;;;;;39.95;15.91;98814.25;4996620;28;20030;-81
2022/07/19 07:07:39;;;;;;;3.50;0.50;;;;;;;39.72;15.84;98822.16;4996657;28;20022;-81
2022/07/19 07:10:07;;;;;;;0.40;0.40;;;;;;;39.92;16.24;98818.97;4997035;28;20088;-80
2022/07/19 07:12:34;;;;;;;1.02;0.50;;;;;;;40.09;16.63;98821.84;4989450;28;20030;-80
2022/07/19 07:15:00;;;;;;;1.30;0.60;;;;;;;39.90;17.25;98817.94;4996951;28;20027;-80
2022/07/19 07:17:26;;;;;;;0.65;0.40;;;;;;;39.47;18.34;98820.31;4996700;28;20027;-81
2022/07/19 07:19:52;;;;;;;0.80;0.65;;;;;;;39.50;16.94;98816.38;4996148;28;20563;-80
2022/07/19 07:22:18;;;;;;;0.55;0.30;;;;;;;39.68;16.99;98821.63;4986438;28;20037;-81
2022/07/19 07:24:44;;;;;;;0.50;0.50;;;;;;;39.98;17.37;98807.47;4991222;28;20046;-80
2022/07/19 07:27:11;;;;;;;0.50;0.50;;;;;;;39.88;16.78;98800.41;5016579;28;20036;-80
2022/07/19 07:29:37;;;;;;;1.77;0.70;;;;;;;40.01;16.84;98812.16;5005561;28;20070;-80
2022/07/19 07:32:03;;;;;;;0.52;0.50;;;;;;;40.07;16.96;98812.16;4996413;28;20038;-79
2022/07/19 07:34:29;;;;;;;0.77;0.50;;;;;;;40.27;16.60;98808.94;4995957;28;20035;-79
2022/07/19 07:36:55;;;;;;;1.50;0.40;;;;;;;40.31;16.31;98806.59;4996514;28;20109;-80
2022/07/19 07:39:21;;;;;;;0.70;0.50;;;;;;;40.24;17.12;98805.03;4996041;28;20031;-79
2022/07/19 07:41:47;;;;;;;0.65;0.45;;;;;;;40.36;16.54;98802.88;4996561;28;20052;-79
2022/07/19 07:44:14;;;;;;;1.98;0.50;;;;;;;40.62;16.81;98806.97;4996762;28;20027;-79
2022/07/19 07:46:40;;;;;;;0.63;0.40;;;;;;;40.76;16.51;98815.78;4995050;28;20026;-79
2022/07/19 07:49:06;;;;;;;0.82;0.38;;;;;;;40.82;16.27;98813.69;4995552;28;20478;-79
2022/07/19 07:51:32;;;;;;;0.63;0.50;;;;;;;40.68;15.90;98810.59;4996111;28;20038;-80
2022/07/19 07:54:00;;;;;;;0.65;0.50;;;;;;;40.51;16.38;98812.00;4996602;28;20042;-80
2022/07/19 07:56:26;;;;;;;0.75;0.30;;;;;;;40.44;16.46;98813.34;4992186;28;20039;-80
2022/07/19 07:58:52;;;;;;;2.55;0.45;;;;;;;40.18;16.02;98810.03;4976422;28;20055;-79
2022/07/19 08:01:18;;;;;;;2.60;0.60;;;;;;;39.83;15.89;98818.47;4976443;28;20034;-80
2022/07/19 08:03:44;;;;;;;4.75;0.50;;;;;;;39.77;15.80;98815.59;4979075;28;20031;-80
2022/07/19 08:06:11;;;;;;;0.40;0.40;;;;;;;39.53;17.46;98811.69;4995772;28;20164;-81
2022/07/19 08:08:38;;;;;;;0.60;0.47;;;;;;;39.13;16.43;98816.63;4995631;28;20031;-78
2022/07/19 08:11:04;;;;;;;1.30;0.50;;;;;;;39.47;16.87;98817.44;4996014;28;20483;-80
2022/07/19 08:13:30;;;;;;;0.90;0.65;;;;;;;39.47;18.74;98820.31;4996024;28;20102;-80
2022/07/19 08:15:56;;;;;;;0.50;0.50;;;;;;;39.00;17.03;98813.47;4995846;28;20090;-80
2022/07/19 08:18:23;;;;;;;0.50;0.50;;;;;;;39.10;16.38;98808.25;4993281;28;20038;-81
2022/07/19 08:20:49;;;;;;;0.73;0.60;;;;;;;39.68;16.17;98809.31;4992471;28;20124;-81
2022/07/19 08:23:15;;;;;;;0.85;0.60;;;;;;;39.99;15.92;98809.00;4995342;28;20033;-79
2022/07/19 08:25:41;;;;;;;3.25;0.55;;;;;;;40.03;16.32;98810.34;4990819;28;20093;-80
2022/07/19 08:28:07;;;;;;;0.50;0.50;;;;;;;40.15;17.22;98802.44;4995700;28;20042;-80
2022/07/19 08:30:33;;;;;;;1.30;0.70;;;;;;;38.02;17.51;98812.53;4995641;28;20042;-80
2022/07/19 08:33:00;;;;;;;0.80;0.60;;;;;;;37.37;18.71;98803.75;4995084;28;20081;-79
2022/07/19 08:35:27;;;;;;;0.98;0.70;;;;;;;38.23;17.91;98805.34;4995749;28;20038;-80
2022/07/19 08:37:53;;;;;;;3.75;0.80;;;;;;;39.09;15.81;98803.81;4995198;28;20032;-79
2022/07/19 08:40:19;;;;;;;1.30;0.80;;;;;;;37.84;17.66;98795.78;4994892;28;20089;-79
2022/07/19 08:42:47;;;;;;;1.05;0.65;;;;;;;38.62;18.21;98791.19;5010262;28;20030;-79
2022/07/19 08:45:14;;;;;;;0.70;0.60;;;;;;;39.36;15.87;98794.44;5004134;28;20062;-79
2022/07/19 08:47:40;;;;;;;0.90;0.70;;;;;;;38.55;16.16;98801.09;4994177;28;20034;-79
2022/07/19 08:50:09;;;;;;;1.00;0.77;;;;;;;38.96;16.15;98806.41;4990862;28;20034;-79
2022/07/19 08:52:36;;;;;;;0.80;0.73;;;;;;;38.95;16.83;98793.38;4992465;28;20033;-79
2022/07/19 08:55:03;;;;;;;0.55;0.55;;;;;;;39.06;17.58;98793.38;4989900;28;20035;-80
2022/07/19 09:00:14;;;;;;;1.23;0.50;;;;;;;38.97;17.16;98810.84;4986769;28;20045;-80
2022/07/19 09:02:50;;;;;;;0.88;0.50;;;;;;;39.04;15.63;98802.53;4992772;28;20035;-81
2022/07/19 09:05:16;;;;;;;1.85;0.60;;;;;;;38.67;16.72;98805.53;4993030;28;20053;-79
2022/07/19 09:08:00;;;;;;;0.82;0.50;;;;;;;39.44;14.91;98795.50;4995215;28;20557;-79
2022/07/19 09:10:27;;;;;;;1.13;0.60;;;;;;;39.71;14.82;98800.44;4985034;28;20553;-79
2022/07/19 09:13:16;;;;;;;0.40;0.40;;;;;;;39.64;15.58;98803.84;4987143;28;20035;-79
2022/07/19 09:15:56;;;;;;;1.05;0.75;;;;;;;39.86;15.41;98803.03;4993586;28;20061;-80
2022/07/19 09:18:28;;;;;;;1.35;0.57;;;;;;;40.57;15.70;98792.59;4988389;28;20043;-80
2022/07/19 09:21:00;;;;;;;1.38;0.60;;;;;;;40.88;14.51;98789.31;4989758;28;20078;-80
2022/07/19 09:23:26;;;;;;;0.63;0.32;;;;;;;41.16;14.21;98787.00;4993803;28;20066;-81
2022/07/19 09:25:55;;;;;;;0.57;0.50;;;;;;;40.13;15.46;98787.81;4994383;28;20022;-81
2022/07/19 09:28:24;;;;;;;1.05;0.60;;;;;;;40.01;15.48;98781.31;4994429;28;20495;-80
2022/07/19 09:30:56;;;;;;;0.88;0.60;;;;;;;40.13;13.92;98792.78;4993707;28;20045;-80
2022/07/19 09:33:31;;;;;;;1.25;0.40;;;;;;;40.52;14.40;98785.56;4994613;28;20066;-81
2022/07/19 09:35:59;;;;;;;0.98;0.50;;;;;;;40.96;16.22;98778.75;4994519;28;20030;-80
2022/07/19 09:38:29;;;;;;;1.33;0.50;;;;;;;41.27;15.29;98775.41;5005597;28;20034;-80
2022/07/19 09:41:11;;;;;;;0.55;0.35;;;;;;;41.37;14.96;98775.03;4980631;28;20039;-80
2022/07/19 09:44:02;;;;;;;0.52;0.40;;;;;;;40.84;13.86;98780.13;4975669;28;20027;-80
2022/07/19 09:46:36;;;;;;;0.60;0.40;;;;;;;41.18;13.27;98777.81;4992413;28;20502;-79
2022/07/19 09:49:14;;;;;;;0.45;0.30;;;;;;;41.19;12.93;98777.28;5005604;28;20075;-81
2022/07/19 09:51:44;;;;;;;0.68;0.40;;;;;;;41.33;13.31;98772.47;5003085;28;20463;-78
2022/07/19 09:54:12;;;;;;;0.70;0.32;;;;;;;41.22;14.65;98776.19;4994407;28;20038;-78
2022/07/19 09:56:41;;;;;;;0.50;0.40;;;;;;;40.97;14.67;98773.78;4992495;28;20104;-78
2022/07/19 09:59:07;;;;;;;1.60;0.50;;;;;;;40.75;14.60;98779.69;4987269;28;20098;-78
2022/07/19 10:01:35;;;;;;;1.25;0.47;;;;;;;40.96;13.23;98773.00;4989480;28;20034;-78
2022/07/19 10:04:10;;;;;;;0.30;0.30;;;;;;;40.53;15.30;98774.81;4987083;28;20062;-79
2022/07/19 10:06:37;;;;;;;0.43;0.40;;;;;;;40.15;14.61;98767.13;4992491;28;20088;-79
2022/07/19 10:09:05;;;;;;;0.50;0.40;;;;;;;40.70;12.88;98770.53;4989424;28;20034;-79
2022/07/19 10:11:32;;;;;;;0.50;0.35;;;;;;;40.46;13.65;98758.13;4990400;28;20038;-79
2022/07/19 10:13:59;;;;;;;0.35;0.35;;;;;;;41.30;14.57;98762.00;4993212;28;20484;-79
2022/07/19 10:16:53;;;;;;;0.40;0.30;;;;;;;41.58;14.99;98767.50;4987282;28;20039;-80
2022/07/19 10:19:23;;;;;;;0.50;0.50;;;;;;;42.27;12.52;98768.59;4991529;28;20034;-80
2022/07/19 10:21:50;;;;;;;;;;;;;;;42.49;12.27;98774.09;4993123;28;20081;-80
2022/07/19 10:24:56;;;;;;;0.43;0.40;;;;;;;42.41;12.85;98776.00;4986131;28;19928;-80
2022/07/19 10:27:25;;;;;;;0.82;0.30;;;;;;;42.07;13.52;98774.84;4993031;28;20038;-80
2022/07/19 10:30:11;;;;;;;0.30;0.30;;;;;;;41.27;13.25;98760.97;4992794;28;20046;-80
2022/07/19 10:32:42;;;;;;;1.13;0.32;;;;;;;40.38;15.31;98765.69;4992466;28;20054;-81
2022/07/19 10:35:27;;;;;;;0.40;0.40;;;;;;;40.98;14.09;98767.50;4996238;28;20038;-79
2022/07/19 10:37:54;;;;;;;0.57;0.40;;;;;;;40.24;13.77;98761.84;4997295;28;20038;-80
2022/07/19 10:40:46;;;;;;;0.32;0.32;;;;;;;41.19;14.14;98754.22;4996268;28;20038;-80
2022/07/19 10:43:15;;;;;;;0.73;0.40;;;;;;;41.06;15.25;98754.06;4996890;28;20042;-79
2022/07/19 10:45:43;;;;;;;0.30;0.30;;;;;;;41.37;14.26;98757.75;4997778;28;20030;-79
2022/07/19 10:48:16;;;;;;;1.10;0.40;;;;;;;41.55;13.02;98754.94;4997670;28;20037;-80
2022/07/19 10:50:46;;;;;;;0.98;0.40;;;;;;;41.66;13.52;98749.06;4997427;28;20026;-80
2022/07/19 10:53:35;;;;;;;;;;;;;;;41.88;13.21;98762.47;4978212;28;20490;-79
2022/07/19 10:56:22;;;;;;;0.75;0.40;;;;;;;42.13;12.75;98749.59;4991868;28;19918;-80
2022/07/19 10:58:54;;;;;;;0.68;0.35;;;;;;;42.29;13.78;98754.38;4996294;28;20498;-79
2022/07/19 11:01:21;;;;;;;0.40;0.30;;;;;;;42.27;13.69;98744.72;4993204;28;20033;-80
2022/07/19 11:03:49;;;;;;;0.40;0.40;;;;;;;42.37;13.17;98743.78;4996848;28;20066;-80
2022/07/19 11:06:27;;;;;;;0.40;0.40;;;;;;;42.37;14.59;98743.78;4997467;28;20030;-80
2022/07/19 11:08:55;;;;;;;0.50;0.40;;;;;;;42.50;12.55;98735.22;5000191;28;20456;-81
2022/07/19 11:11:23;;;;;;;0.52;0.40;;;;;;;42.98;13.49;98739.25;4996406;28;20038;-79
2022/07/19 11:13:52;;;;;;;0.40;0.40;;;;;;;43.42;13.21;98731.94;4993504;28;20026;-79
2022/07/19 11:16:19;;;;;;;1.05;0.35;;;;;;;43.50;12.56;98745.19;4992710;28;20031;-80
2022/07/19 11:18:46;;;;;;;0.30;0.30;;;;;;;43.41;13.47;98730.38;4996373;28;20084;-81
2022/07/19 11:21:13;;;;;;;0.40;0.30;;;;;;;43.04;14.13;98732.03;4996519;28;20038;-81
2022/07/19 11:23:40;;;;;;;0.70;0.30;;;;;;;43.35;13.67;98732.59;4989776;28;20039;-80
2022/07/19 11:26:20;;;;;;;0.32;0.32;;;;;;;43.61;14.69;98732.63;4977378;28;20553;-80
2022/07/19 11:28:47;;;;;;;2.00;0.30;;;;;;;43.70;13.74;98727.22;4988203;28;20418;-80
2022/07/19 11:31:22;;;;;;;1.45;0.50;;;;;;;42.95;13.18;98723.78;4996508;28;20030;-80
2022/07/19 11:33:52;;;;;;;0.60;0.30;;;;;;;42.49;14.37;98724.22;4996740;28;20061;-80
2022/07/19 11:36:19;;;;;;;0.93;0.50;;;;;;;42.53;14.80;98719.69;4996564;28;20093;-79
2022/07/19 11:38:48;;;;;;;0.55;0.50;;;;;;;43.09;14.10;98721.72;4992289;28;20035;-80
2022/07/19 11:41:20;;;;;;;0.63;0.40;;;;;;;42.97;13.09;98726.16;4981252;28;20027;-80
2022/07/19 11:44:01;;;;;;;0.77;0.40;;;;;;;43.06;12.88;98714.91;5005329;28;20125;-80